RJFKRJOA

Guest
Details From RJFK - KAGOSHIMA
To RJOA - HIROSHIMA
Flight Number -
Tags generated
Created
Modified
Stats Distance 193 nm / 358 km
Max Altitude 23,900 ft / 7,285 m
Waypoints 5
Social Downloads 0
Likes 0
Share VATSIM

Download

Looking for another format? Having issues loading an existing format? Contact us
Advertisement - Login to hide

Notes

Basic altitude profile: - Ascent Rate: 2500ft/min - Ascent Speed: 250kts - Cruise Altitude: 35000ft - Cruise Speed: 420kts - Descent Rate: 1500ft/min - Descent Speed: 250kts Options: - Use NATs: yes - Use PACOTS: yes - Use low airways: yes - Use high airways: yes

Route

RJFK KROMA V54 ITIKO RJOA

ID Type Via Altitude Latitude Longitude Leg Dist Tot Dist Heading (true) Name
O RJFK APT - 0 ft / 0 m 31.80340˚ 130.71941˚ - 0 nm - KAGOSHIMA
KROMA FIX - 13,800 ft / 4,206 m 32.41037˚ 131.10709˚ 41 nm 41 nm 28° / 29° -
SOBOH FIX V54 (AWY-LO) 23,900 ft / 7,285 m 32.81422˚ 131.40261˚ 28 nm 69 nm 32° / 32° -
ITIKO FIX V54 (AWY-HI) 21,700 ft / 6,614 m 33.05781˚ 131.58314˚ 17 nm 87 nm 32° / 32° -
O RJOA APT - 0 ft / 0 m 34.43603˚ 132.91944˚ 106 nm 193 nm 39° / 39° HIROSHIMA

Altitude Profile

Advertisement - Login to hide

Weather


0- 5 10 15 20 25 30 35+ Temperature / ° C

Clouds and Precipitation
Forecast for 2017-12-13 12:00 UTC. Updated 24 minutes ago

Ground ~20,000 ft ~40,000 ft Winds

RJFK

Details ICAO RJFK (KOJ)
Name KAGOSHIMA
Region Japan
Timezone Asia/Tokyo (UTC+9.0)
Stats Elevation 906 ft / 276 m (AMSL)
Location 31.803400° 130.719405°
Runways 1
Magnetic Variation 6.911° W

METAR

RJFK 130900Z 33010KT 9999 FEW035 02/M05 Q1023 RMK 1CU035 A3023

Decode

TAF

TAF RJFK 130505Z 1306/1412 33011KT 9999 FEW040 BECMG 1400/1403 09006KT

Decode

Departure Runways

ID Width Length Bearing (true) Bearing (mag) Surface Threshold Offset Overrun Length
16 150 ft / 46 m 9,861 ft / 3,006 m 150.11° 157.02° Asphalt 0 ft / 0 m 200 ft / 61 m
34 150 ft / 46 m 9,861 ft / 3,006 m 330.11° 337.02° Asphalt 0 ft / 0 m 200 ft / 61 m

RJOA

Details ICAO RJOA (HIJ)
Name HIROSHIMA
Region Japan
Timezone Asia/Tokyo (UTC+9.0)
Stats Elevation 1,088 ft / 332 m (AMSL)
Location 34.436025° 132.919444°
Runways 1
Magnetic Variation 7.696° W

METAR

RJOA 130900Z 28005KT 9999 -SHSN FEW010 SCT020 00/M05 Q1022

Decode

TAF

TAF RJOA 130506Z 1306/1412 31012KT 9999 -SHSN FEW020 BKN030 BECMG 1406/1409 02006KT

Decode

Destination Runways

ID Width Length Bearing (true) Bearing (mag) Surface Threshold Offset Overrun Length
10 200 ft / 61 m 9,823 ft / 2,994 m 89.99° 97.69° Asphalt 0 ft / 0 m 210 ft / 64 m
28 200 ft / 61 m 9,823 ft / 2,994 m 270.01° 277.71° Asphalt 0 ft / 0 m 210 ft / 64 m

Approach Navaids

Runway Type Ident Frequency Range Bearing (true) Bearing (mag) Slope Elevation
10 Localiser IHG 108.70 MHz 18 nm / 33 km 90.00° 97.70° - 1,094 ft / 333 m (AMSL)
10 Glidescope IHG 108.70 MHz 10 nm / 19 km 90.00° 97.70° 3.00° 1,094 ft / 333 m (AMSL)
10 DME IHG 108.70 MHz 18 nm / 33 km - - - 1,094 ft / 333 m (AMSL)

Popular Alternatives